createdAt,value
2022-12-26T00:00:59.472Z,69.49
2022-12-26T00:03:27.203Z,69.24
2022-12-26T00:05:56.284Z,69.53
2022-12-26T00:08:23.992Z,69.37
2022-12-26T00:10:51.544Z,69.58
2022-12-26T00:13:40.393Z,69.93
2022-12-26T00:16:08.325Z,69.99
2022-12-26T00:18:35.946Z,70.19
2022-12-26T00:21:05.483Z,70.33
2022-12-26T00:23:33.767Z,70.29
2022-12-26T00:26:04.138Z,70.17
2022-12-26T00:28:31.847Z,70.27
2022-12-26T00:30:59.694Z,70.38
2022-12-26T00:33:28.124Z,70.20
2022-12-26T00:35:55.739Z,70.50
2022-12-26T00:38:24.853Z,70.53
2022-12-26T00:40:52.374Z,70.54
2022-12-26T00:43:20.015Z,70.77
2022-12-26T00:45:49.070Z,70.96
2022-12-26T00:48:16.643Z,71.15
2022-12-26T00:50:44.220Z,71.24
2022-12-26T00:53:11.859Z,70.87
2022-12-26T00:55:41.126Z,70.65
2022-12-26T00:58:08.876Z,70.54
2022-12-26T01:00:37.530Z,70.57
2022-12-26T01:03:07.951Z,70.57
2022-12-26T01:05:35.998Z,70.77
2022-12-26T01:08:22.986Z,70.62
2022-12-26T01:10:53.356Z,71.00
2022-12-26T01:13:21.352Z,70.01
2022-12-26T01:15:50.897Z,69.93
2022-12-26T01:18:18.683Z,70.50
2022-12-26T01:20:46.394Z,70.29
2022-12-26T01:23:14.144Z,70.29
2022-12-26T01:26:16.350Z,70.21
2022-12-26T01:28:30.846Z,70.62
2022-12-26T01:31:02.644Z,70.60
2022-12-26T01:33:30.390Z,70.57
2022-12-26T01:35:58.069Z,70.48
2022-12-26T01:38:25.766Z,70.42
2022-12-26T01:41:13.410Z,70.67
2022-12-26T01:43:54.732Z,70.07
2022-12-26T01:46:25.412Z,70.30
2022-12-26T01:48:54.160Z,69.80
2022-12-26T01:51:26.854Z,70.30
2022-12-26T01:54:41.013Z,69.50
2022-12-26T01:56:48.406Z,69.70
2022-12-26T01:59:23.086Z,69.86
2022-12-26T02:01:54.706Z,69.76
2022-12-26T02:04:49.374Z,69.55
2022-12-26T02:07:17.048Z,69.86
2022-12-26T02:09:44.648Z,69.47
2022-12-26T02:12:33.996Z,69.83
2022-12-26T02:15:11.311Z,69.87
2022-12-26T02:17:40.250Z,69.74
2022-12-26T02:20:18.591Z,69.75
2022-12-26T02:23:12.579Z,69.57
2022-12-26T02:26:16.585Z,69.19
2022-12-26T02:29:28.358Z,69.03
2022-12-26T02:32:06.669Z,69.19
2022-12-26T02:34:41.320Z,69.27
2022-12-26T02:37:25.012Z,68.82
2022-12-26T02:40:08.962Z,68.70
2022-12-26T02:42:49.898Z,69.01
2022-12-26T02:45:44.156Z,69.03
2022-12-26T02:48:19.092Z,69.29
2022-12-26T02:51:17.666Z,68.75
2022-12-26T02:54:09.993Z,69.40
2022-12-26T02:56:58.798Z,68.96
2022-12-26T02:59:55.974Z,68.82
2022-12-26T03:02:48.765Z,69.18
2022-12-26T03:05:40.777Z,69.15
2022-12-26T03:08:31.413Z,69.25
2022-12-26T03:11:17.311Z,69.16
2022-12-26T03:13:46.899Z,69.17
2022-12-26T03:16:34.426Z,69.25
2022-12-26T03:19:07.413Z,69.09
2022-12-26T03:21:40.941Z,68.67
2022-12-26T03:24:12.006Z,68.84
2022-12-26T03:26:43.632Z,69.07
2022-12-26T03:29:30.904Z,68.78
2022-12-26T03:31:59.433Z,68.91
2022-12-26T03:34:28.249Z,69.47
2022-12-26T03:37:47.282Z,69.55
2022-12-26T03:40:47.639Z,69.46
2022-12-26T03:43:43.415Z,69.53
2022-12-26T03:46:36.048Z,69.84
2022-12-26T03:49:28.065Z,69.97
2022-12-26T03:52:20.232Z,70.42
2022-12-26T03:55:13.685Z,70.21
2022-12-26T03:58:07.996Z,70.40
2022-12-26T04:00:54.247Z,70.53
2022-12-26T04:03:42.650Z,70.55
2022-12-26T04:06:35.705Z,70.71
2022-12-26T04:09:38.047Z,70.44
2022-12-26T04:12:29.725Z,70.47
2022-12-26T04:15:19.025Z,70.76
2022-12-26T04:18:09.413Z,70.48
2022-12-26T04:20:44.427Z,70.80
2022-12-26T04:23:37.110Z,70.94
2022-12-26T04:26:27.669Z,71.01
2022-12-26T04:29:14.243Z,71.04
2022-12-26T04:32:05.242Z,71.43
2022-12-26T04:35:00.287Z,71.63
2022-12-26T04:37:47.472Z,71.41
2022-12-26T04:40:38.584Z,71.75
2022-12-26T04:43:48.962Z,71.58
2022-12-26T04:46:16.232Z,71.91
2022-12-26T04:49:03.640Z,71.63
2022-12-26T04:51:31.273Z,71.64
2022-12-26T04:53:58.892Z,71.78
2022-12-26T04:56:26.487Z,71.49
2022-12-26T04:58:54.090Z,71.62
2022-12-26T05:01:40.701Z,71.48
2022-12-26T05:04:31.039Z,71.43
2022-12-26T05:07:16.851Z,71.42
2022-12-26T05:09:44.659Z,71.76
2022-12-26T05:12:12.333Z,71.75
2022-12-26T05:14:39.993Z,71.71
2022-12-26T05:17:26.726Z,71.79
2022-12-26T05:20:12.074Z,71.81
2022-12-26T05:23:01.715Z,71.58
2022-12-26T05:25:51.044Z,71.30
2022-12-26T05:28:37.318Z,71.68
2022-12-26T05:31:05.846Z,71.36
2022-12-26T05:33:52.709Z,71.24
2022-12-26T05:36:22.758Z,71.54
2022-12-26T05:38:50.423Z,71.80
2022-12-26T05:41:18.770Z,71.96
2022-12-26T05:43:46.616Z,72.07
2022-12-26T05:46:14.268Z,72.54
2022-12-26T05:48:43.292Z,72.51
2022-12-26T05:51:11.096Z,72.54
2022-12-26T05:53:38.802Z,72.64
2022-12-26T05:56:07.729Z,73.41
2022-12-26T05:58:35.591Z,73.49
2022-12-26T06:01:08.576Z,73.55
2022-12-26T06:03:36.602Z,73.70
2022-12-26T06:06:06.415Z,73.92
2022-12-26T06:08:34.351Z,74.03
2022-12-26T06:11:06.036Z,74.27
2022-12-26T06:13:34.384Z,74.26
2022-12-26T06:16:05.720Z,74.40
2022-12-26T06:18:33.759Z,74.80
2022-12-26T06:21:06.287Z,75.57
2022-12-26T06:23:33.966Z,76.02
2022-12-26T06:26:01.741Z,76.70
2022-12-26T06:28:29.450Z,78.29
2022-12-26T06:31:03.331Z,78.49
2022-12-26T06:33:31.405Z,79.16
2022-12-26T06:36:04.391Z,79.85
2022-12-26T06:38:33.612Z,80.48
2022-12-26T06:41:01.269Z,80.74
2022-12-26T06:43:28.928Z,80.53
2022-12-26T06:45:57.479Z,81.29
2022-12-26T06:48:25.691Z,82.04
2022-12-26T06:50:54.384Z,82.83
2022-12-26T06:53:22.368Z,83.08
2022-12-26T06:55:52.198Z,83.65
2022-12-26T06:58:19.846Z,83.48
2022-12-26T07:00:47.486Z,83.76
2022-12-26T07:03:15.165Z,83.73
2022-12-26T07:05:42.817Z,83.75
2022-12-26T07:08:10.444Z,83.68
2022-12-26T07:10:38.453Z,84.70
2022-12-26T07:13:07.463Z,84.49
2022-12-26T07:15:35.118Z,83.88
2022-12-26T07:18:02.689Z,83.99
2022-12-26T07:20:30.291Z,83.84
2022-12-26T07:22:57.882Z,83.52
2022-12-26T07:25:25.513Z,83.01
2022-12-26T07:27:54.992Z,82.98
2022-12-26T07:30:23.994Z,83.29
2022-12-26T07:32:51.599Z,83.79
2022-12-26T07:35:19.208Z,84.20
2022-12-26T07:37:46.746Z,83.33
2022-12-26T07:40:14.585Z,83.23
2022-12-26T07:42:42.102Z,82.93
2022-12-26T07:45:10.559Z,82.43
2022-12-26T07:47:39.679Z,82.44
2022-12-26T07:50:08.614Z,82.28
2022-12-26T07:52:36.179Z,82.33
2022-12-26T07:55:04.444Z,82.21
2022-12-26T07:57:48.717Z,81.62
2022-12-26T08:00:18.808Z,81.74
2022-12-26T08:02:48.699Z,81.82
2022-12-26T08:05:17.207Z,82.43
2022-12-26T08:07:47.230Z,82.72
2022-12-26T08:10:14.884Z,82.32
2022-12-26T08:12:42.440Z,82.17
2022-12-26T08:15:12.585Z,82.17
2022-12-26T08:17:40.206Z,82.36
2022-12-26T08:20:10.072Z,82.62
2022-12-26T08:22:37.685Z,82.89
2022-12-26T08:25:06.369Z,82.49
2022-12-26T08:27:34.907Z,83.18
2022-12-26T08:30:02.616Z,83.12
2022-12-26T08:32:30.235Z,83.12
2022-12-26T08:34:57.911Z,83.67
2022-12-26T08:37:26.961Z,83.74
2022-12-26T08:39:54.540Z,84.07
2022-12-26T08:42:22.895Z,83.92
2022-12-26T08:44:50.645Z,83.61
2022-12-26T08:47:18.299Z,84.08
2022-12-26T08:49:45.969Z,84.06
2022-12-26T08:52:40.294Z,83.57
2022-12-26T08:55:09.889Z,83.80
2022-12-26T08:57:37.511Z,84.31
2022-12-26T09:00:07.674Z,84.12
2022-12-26T09:02:35.493Z,84.17
2022-12-26T09:05:03.183Z,84.43
2022-12-26T09:07:30.786Z,84.07
2022-12-26T09:09:59.715Z,84.41
2022-12-26T09:12:27.838Z,84.25
2022-12-26T09:14:55.550Z,83.88
2022-12-26T09:17:26.267Z,83.56
2022-12-26T09:19:53.944Z,83.15
2022-12-26T09:22:39.198Z,82.69
2022-12-26T09:25:08.896Z,82.29
2022-12-26T09:27:36.481Z,81.98
2022-12-26T09:30:04.560Z,81.70
2022-12-26T09:32:33.908Z,82.15
2022-12-26T09:35:01.837Z,82.51
2022-12-26T09:37:29.546Z,82.76
2022-12-26T09:39:57.268Z,82.38
2022-12-26T09:42:33.227Z,81.73
2022-12-26T09:45:09.453Z,81.94
2022-12-26T09:47:42.409Z,81.41
2022-12-26T09:50:15.887Z,81.63
2022-12-26T09:52:49.632Z,80.98
2022-12-26T09:55:30.405Z,81.29
2022-12-26T09:58:05.683Z,80.52
2022-12-26T10:00:39.564Z,80.58
2022-12-26T10:03:08.091Z,80.28
2022-12-26T10:05:41.718Z,80.43
2022-12-26T10:08:23.083Z,80.30
2022-12-26T10:10:58.514Z,80.08
2022-12-26T10:13:35.321Z,80.15
2022-12-26T10:16:09.708Z,80.08
2022-12-26T10:18:54.424Z,80.03
2022-12-26T10:21:36.780Z,80.10
2022-12-26T10:24:15.650Z,79.91
2022-12-26T10:26:47.062Z,79.89
2022-12-26T10:29:22.262Z,80.07
2022-12-26T10:31:54.531Z,79.54
2022-12-26T10:34:26.663Z,79.49
2022-12-26T10:37:00.186Z,79.17
2022-12-26T10:39:34.221Z,79.08
2022-12-26T10:42:09.181Z,79.45
2022-12-26T10:44:38.472Z,79.90
2022-12-26T10:47:20.592Z,80.44
2022-12-26T10:49:49.455Z,81.37
2022-12-26T10:52:19.110Z,81.86
2022-12-26T10:54:50.288Z,82.85
2022-12-26T10:57:41.371Z,83.09
2022-12-26T11:00:20.952Z,83.13
2022-12-26T11:03:03.432Z,82.94
2022-12-26T11:08:22.694Z,82.28
2022-12-26T11:11:05.529Z,82.62
2022-12-26T11:13:39.978Z,80.96
2022-12-26T11:16:10.954Z,80.66
2022-12-26T11:18:47.713Z,80.52
2022-12-26T11:21:23.164Z,80.08
2022-12-26T11:23:52.477Z,79.49
2022-12-26T11:26:23.448Z,78.89
2022-12-26T11:29:07.433Z,79.23
2022-12-26T11:31:37.247Z,78.49
2022-12-26T11:34:10.427Z,78.01
2022-12-26T11:36:41.423Z,78.45
2022-12-26T11:39:23.121Z,77.74
2022-12-26T11:41:52.070Z,77.42
2022-12-26T11:44:26.283Z,77.18
2022-12-26T11:47:00.024Z,77.27
2022-12-26T11:49:31.877Z,76.33
2022-12-26T11:52:01.795Z,75.79
2022-12-26T11:54:36.327Z,75.76
2022-12-26T11:57:12.793Z,75.30
2022-12-26T11:59:40.658Z,75.47
2022-12-26T12:02:30.637Z,76.02
2022-12-26T12:05:01.703Z,75.17
2022-12-26T12:08:00.229Z,74.47
2022-12-26T12:10:51.436Z,74.40
2022-12-26T12:13:31.073Z,74.44
2022-12-26T12:16:05.758Z,73.99
2022-12-26T12:18:48.720Z,73.60
2022-12-26T12:21:25.328Z,73.41
2022-12-26T12:24:19.330Z,73.38
2022-12-26T12:26:58.745Z,73.76
2022-12-26T12:29:43.174Z,73.68
2022-12-26T12:32:19.444Z,74.19
2022-12-26T12:35:17.995Z,73.87
2022-12-26T12:38:01.497Z,73.10
2022-12-26T12:40:36.855Z,73.18
2022-12-26T12:43:16.348Z,73.27
2022-12-26T12:45:52.539Z,73.52
2022-12-26T12:48:47.660Z,72.95
2022-12-26T12:51:27.598Z,72.66
2022-12-26T12:54:22.350Z,72.56
2022-12-26T12:56:57.236Z,72.00
2022-12-26T12:59:33.798Z,72.41
2022-12-26T13:02:11.041Z,72.31
2022-12-26T13:04:45.299Z,72.25
2022-12-26T13:07:19.558Z,72.33
2022-12-26T13:09:51.042Z,71.98
2022-12-26T13:12:22.476Z,71.79
2022-12-26T13:14:53.793Z,72.08
2022-12-26T13:17:26.077Z,72.00
2022-12-26T13:20:02.661Z,71.93
2022-12-26T13:22:53.824Z,71.40
2022-12-26T13:25:23.512Z,71.72
2022-12-26T13:27:54.535Z,71.89
2022-12-26T13:30:22.321Z,73.00
2022-12-26T13:32:49.919Z,74.55
2022-12-26T13:35:53.617Z,75.35
2022-12-26T13:38:24.122Z,77.62
2022-12-26T13:41:17.760Z,78.81
2022-12-26T13:44:00.117Z,79.57
2022-12-26T13:46:38.788Z,81.31
2022-12-26T13:49:26.467Z,82.57
2022-12-26T13:52:22.217Z,84.30
2022-12-26T13:55:30.138Z,84.75
2022-12-26T13:58:23.633Z,83.80
2022-12-26T14:00:53.431Z,84.97
2022-12-26T14:03:53.139Z,85.18
2022-12-26T14:06:47.018Z,84.90
2022-12-26T14:09:29.852Z,85.79
2022-12-26T14:12:11.879Z,85.55
2022-12-26T14:14:54.633Z,85.39
2022-12-26T14:17:40.889Z,85.14
2022-12-26T14:20:37.209Z,85.30
2022-12-26T14:23:22.720Z,84.06
2022-12-26T14:25:58.966Z,83.93
2022-12-26T14:28:33.913Z,83.42
2022-12-26T14:31:14.657Z,83.37
2022-12-26T14:33:50.903Z,82.93
2022-12-26T14:36:35.205Z,82.69
2022-12-26T14:39:13.812Z,82.28
2022-12-26T14:42:36.749Z,81.80
2022-12-26T14:45:34.245Z,80.90
2022-12-26T14:48:02.269Z,81.41
2022-12-26T14:50:43.210Z,80.56
2022-12-26T14:53:38.038Z,80.73
2022-12-26T14:56:33.986Z,80.31
2022-12-26T14:59:28.617Z,80.15
2022-12-26T15:02:11.668Z,80.35
2022-12-26T15:04:52.582Z,80.21
2022-12-26T15:08:07.863Z,80.57
2022-12-26T15:11:21.940Z,80.47
2022-12-26T15:14:29.784Z,80.69
2022-12-26T15:17:09.450Z,80.43
2022-12-26T15:20:16.704Z,80.00
2022-12-26T15:23:07.033Z,78.86
2022-12-26T15:26:05.180Z,78.45
2022-12-26T15:28:57.651Z,78.53
2022-12-26T15:31:37.857Z,78.98
2022-12-26T15:34:26.806Z,78.03
2022-12-26T15:36:58.072Z,78.55
2022-12-26T15:39:33.568Z,78.52
2022-12-26T15:42:17.001Z,77.90
2022-12-26T15:44:52.150Z,79.24
2022-12-26T15:47:28.252Z,79.93
2022-12-26T15:50:18.408Z,80.81
2022-12-26T15:52:56.652Z,80.76
2022-12-26T15:55:39.164Z,81.52
2022-12-26T15:58:16.779Z,82.16
2022-12-26T16:00:50.121Z,83.08
2022-12-26T16:03:30.733Z,84.03
2022-12-26T16:06:16.070Z,85.05
2022-12-26T16:09:04.763Z,84.93
2022-12-26T16:11:54.199Z,85.19
2022-12-26T16:14:31.890Z,84.87
2022-12-26T16:17:19.654Z,85.38
2022-12-26T16:19:48.807Z,86.28
2022-12-26T16:22:41.788Z,85.26
2022-12-26T16:25:11.678Z,86.54
2022-12-26T16:27:39.854Z,86.43
2022-12-26T16:30:14.002Z,86.52
2022-12-26T16:32:43.897Z,86.08
2022-12-26T16:35:20.051Z,86.19
2022-12-26T16:37:50.987Z,85.59
2022-12-26T16:40:25.543Z,86.62
2022-12-26T16:43:02.679Z,86.82
2022-12-26T16:45:33.789Z,85.60
2022-12-26T16:48:02.195Z,85.03
2022-12-26T16:50:32.816Z,86.46
2022-12-26T16:53:10.837Z,85.68
2022-12-26T16:55:46.550Z,85.46
2022-12-26T16:58:19.037Z,85.27
2022-12-26T17:00:49.778Z,84.63
2022-12-26T17:03:27.385Z,84.36
2022-12-26T17:05:55.403Z,83.99
2022-12-26T17:08:25.970Z,84.73
2022-12-26T17:10:53.895Z,84.66
2022-12-26T17:13:25.654Z,85.01
2022-12-26T17:15:56.691Z,85.40
2022-12-26T17:18:41.397Z,84.85
2022-12-26T17:21:19.096Z,86.91
2022-12-26T17:24:17.595Z,87.60
2022-12-26T17:26:45.362Z,86.32
2022-12-26T17:29:50.522Z,85.85
2022-12-26T17:32:26.844Z,86.12
2022-12-26T17:34:54.632Z,85.51
2022-12-26T17:37:25.432Z,86.24
2022-12-26T17:40:03.067Z,87.21
2022-12-26T17:42:45.472Z,85.14
2022-12-26T17:45:17.483Z,86.06
2022-12-26T17:47:45.177Z,85.48
2022-12-26T17:50:13.448Z,86.32
2022-12-26T17:52:41.557Z,86.32
2022-12-26T17:55:19.711Z,86.88
2022-12-26T17:57:47.869Z,87.16
2022-12-26T18:00:18.200Z,88.16
2022-12-26T18:02:45.844Z,87.26
2022-12-26T18:05:14.076Z,86.41
2022-12-26T18:07:42.217Z,85.92
2022-12-26T18:10:19.342Z,85.85
2022-12-26T18:12:47.132Z,85.76
2022-12-26T18:15:14.823Z,85.87
2022-12-26T18:17:43.029Z,86.33
2022-12-26T18:20:16.895Z,86.26
2022-12-26T18:22:44.455Z,86.31
2022-12-26T18:25:13.464Z,86.80
2022-12-26T18:27:43.000Z,87.42
2022-12-26T18:30:17.297Z,86.64
2022-12-26T18:32:45.639Z,86.36
2022-12-26T18:35:14.000Z,86.20
2022-12-26T18:37:44.270Z,86.40
2022-12-26T18:40:27.310Z,85.38
2022-12-26T18:42:56.792Z,85.70
2022-12-26T18:45:24.586Z,85.27
2022-12-26T18:47:52.339Z,86.10
2022-12-26T18:50:20.325Z,85.74
2022-12-26T18:52:53.323Z,86.63
2022-12-26T18:55:22.011Z,86.43
2022-12-26T18:57:50.007Z,85.65
2022-12-26T19:00:20.985Z,86.36
2022-12-26T19:02:49.832Z,86.17
2022-12-26T19:05:20.828Z,86.19
2022-12-26T19:07:50.273Z,86.42
2022-12-26T19:10:19.111Z,87.17
2022-12-26T19:12:47.531Z,86.63
2022-12-26T19:15:16.008Z,85.96
2022-12-26T19:17:45.049Z,86.43
2022-12-26T19:20:25.269Z,86.78
2022-12-26T19:22:54.862Z,85.85
2022-12-26T19:25:24.181Z,86.20
2022-12-26T19:27:52.292Z,87.12
2022-12-26T19:30:21.412Z,85.91
2022-12-26T19:32:50.771Z,85.96
2022-12-26T19:35:19.039Z,86.37
2022-12-26T19:37:46.805Z,86.19
2022-12-26T19:40:21.197Z,86.02
2022-12-26T19:42:50.765Z,86.42
2022-12-26T19:45:18.611Z,85.80
2022-12-26T19:47:46.432Z,85.74
2022-12-26T19:50:15.845Z,85.62
2022-12-26T19:52:43.603Z,85.25
2022-12-26T19:55:12.835Z,85.26
2022-12-26T19:57:40.484Z,86.13
2022-12-26T20:00:11.066Z,85.50
2022-12-26T20:02:39.012Z,85.15
2022-12-26T20:05:07.720Z,85.35
2022-12-26T20:07:37.035Z,85.84
2022-12-26T20:10:05.727Z,86.19
2022-12-26T20:12:33.488Z,87.05
2022-12-26T20:15:01.203Z,85.08
2022-12-26T20:17:28.966Z,86.42
2022-12-26T20:19:56.823Z,84.17
2022-12-26T20:22:24.684Z,84.33
2022-12-26T20:24:53.807Z,84.80
2022-12-26T20:27:21.556Z,83.31
2022-12-26T20:29:49.224Z,83.51
2022-12-26T20:32:17.410Z,82.70
2022-12-26T20:34:45.173Z,82.82
2022-12-26T20:37:13.032Z,84.16
2022-12-26T20:39:40.799Z,84.04
2022-12-26T20:42:11.035Z,84.48
2022-12-26T20:44:41.453Z,84.00
2022-12-26T20:47:09.279Z,84.97
2022-12-26T20:49:37.026Z,83.70
2022-12-26T20:52:05.372Z,84.76
2022-12-26T20:54:33.230Z,84.46
2022-12-26T20:57:00.950Z,83.73
2022-12-26T20:59:30.210Z,85.07
2022-12-26T21:01:58.104Z,84.73
2022-12-26T21:04:25.749Z,84.01
2022-12-26T21:06:53.480Z,84.36
2022-12-26T21:09:21.085Z,85.78
2022-12-26T21:11:48.690Z,84.59
2022-12-26T21:14:18.406Z,84.32
2022-12-26T21:16:49.888Z,83.16
2022-12-26T21:19:18.866Z,83.18
2022-12-26T21:21:48.892Z,83.62
2022-12-26T21:24:19.292Z,84.70
2022-12-26T21:26:47.785Z,85.42
2022-12-26T21:29:18.995Z,84.68
2022-12-26T21:31:48.435Z,83.01
2022-12-26T21:34:17.571Z,84.35
2022-12-26T21:37:06.039Z,83.45
2022-12-26T21:39:34.954Z,83.71
2022-12-26T21:42:02.751Z,83.74
2022-12-26T21:44:30.311Z,83.04
2022-12-26T21:46:59.271Z,83.52
2022-12-26T21:49:26.821Z,82.61
2022-12-26T21:51:54.447Z,82.47
2022-12-26T21:54:44.823Z,83.46
2022-12-26T21:57:16.094Z,82.06
2022-12-26T21:59:59.664Z,82.24
2022-12-26T22:02:48.356Z,80.96
2022-12-26T22:05:17.008Z,80.06
2022-12-26T22:07:44.983Z,78.23
2022-12-26T22:10:34.621Z,77.48
2022-12-26T22:13:01.968Z,78.28
2022-12-26T22:15:47.363Z,77.67
2022-12-26T22:18:16.615Z,78.60
2022-12-26T22:20:45.806Z,78.25
2022-12-26T22:23:13.969Z,77.55
2022-12-26T22:25:41.611Z,77.83
2022-12-26T22:28:09.226Z,78.92
2022-12-26T22:30:36.801Z,78.24
2022-12-26T22:33:04.513Z,78.07
2022-12-26T22:35:33.579Z,78.11
2022-12-26T22:38:01.107Z,78.35
2022-12-26T22:40:28.638Z,78.52
2022-12-26T22:42:56.188Z,78.47
2022-12-26T22:45:23.788Z,74.70
2022-12-26T22:47:51.350Z,75.27
2022-12-26T22:50:19.121Z,75.79
2022-12-26T22:52:48.146Z,74.67
2022-12-26T22:55:15.771Z,74.94
2022-12-26T22:57:48.187Z,75.66
2022-12-26T23:00:19.054Z,76.18
2022-12-26T23:02:46.894Z,76.48
2022-12-26T23:05:15.380Z,76.32
2022-12-26T23:07:43.652Z,76.35
2022-12-26T23:10:19.051Z,77.04
2022-12-26T23:12:47.883Z,77.75
2022-12-26T23:15:18.439Z,77.49
2022-12-26T23:18:09.165Z,78.47
2022-12-26T23:20:56.575Z,79.17
2022-12-26T23:23:25.129Z,79.17
2022-12-26T23:25:54.144Z,78.78
2022-12-26T23:28:39.186Z,78.98
2022-12-26T23:31:06.838Z,79.73
2022-12-26T23:33:34.465Z,80.64
2022-12-26T23:36:02.302Z,80.20
2022-12-26T23:38:29.953Z,79.67
2022-12-26T23:40:58.837Z,80.91
2022-12-26T23:43:26.405Z,81.39
2022-12-26T23:45:53.993Z,80.59
2022-12-26T23:48:21.543Z,80.51
2022-12-26T23:50:49.466Z,80.22
2022-12-26T23:53:17.125Z,79.38
2022-12-26T23:55:44.664Z,79.67
2022-12-26T23:58:13.540Z,79.83
